createdAt,value
2019-05-12T00:00:48.429Z,47.409436
2019-05-12T00:01:51.309Z,47.409380
2019-05-12T00:02:54.310Z,47.409397
2019-05-12T00:03:58.062Z,47.409435
2019-05-12T00:05:01.289Z,47.409399
2019-05-12T00:06:04.327Z,47.409520
2019-05-12T00:07:08.703Z,47.409504
2019-05-12T00:08:12.328Z,47.409554
2019-05-12T00:09:15.300Z,47.409529
2019-05-12T00:10:18.306Z,47.409734
2019-05-12T00:11:21.299Z,47.409455
2019-05-12T00:12:24.351Z,47.409352
2019-05-12T00:13:27.888Z,47.409455
2019-05-12T00:14:31.299Z,47.409340
2019-05-12T00:15:34.320Z,47.409465
2019-05-12T00:16:38.437Z,47.409452
2019-05-12T00:17:41.368Z,47.409433
2019-05-12T00:18:43.276Z,47.409510
2019-05-12T00:19:47.912Z,47.409452
2019-05-12T00:20:51.287Z,47.409295
2019-05-12T00:21:54.295Z,47.409351
2019-05-12T00:22:58.143Z,47.409366
2019-05-12T00:24:01.315Z,47.409347
2019-05-12T00:25:04.299Z,47.409472
2019-05-12T00:26:07.929Z,47.409412
2019-05-12T00:27:11.315Z,47.409430
2019-05-12T00:28:14.330Z,47.409396
2019-05-12T00:29:18.459Z,47.409309
2019-05-12T00:30:21.285Z,47.409301
2019-05-12T00:31:24.342Z,47.409438
2019-05-12T00:32:28.185Z,47.409358
2019-05-12T00:33:30.307Z,47.409297
2019-05-12T00:34:32.423Z,47.409286
2019-05-12T00:35:37.849Z,47.409421
2019-05-12T00:36:41.316Z,47.409330
2019-05-12T00:37:44.325Z,47.409590
2019-05-12T00:38:48.495Z,47.409790
2019-05-12T00:39:51.326Z,47.409686
2019-05-12T00:40:54.319Z,47.409406
2019-05-12T00:41:58.641Z,47.409282
2019-05-12T00:43:02.366Z,47.409410
2019-05-12T00:44:05.304Z,47.409449
2019-05-12T00:45:08.338Z,47.409644
2019-05-12T00:46:11.326Z,47.409621
2019-05-12T00:47:14.266Z,47.409644
2019-05-12T00:48:17.823Z,47.409610
2019-05-12T00:49:21.306Z,47.409400
2019-05-12T00:50:24.362Z,47.409558
2019-05-12T00:51:28.845Z,47.409476
2019-05-12T00:52:32.295Z,47.409541
2019-05-12T00:53:40.142Z,47.409476
2019-05-12T00:54:43.318Z,47.409519
2019-05-12T00:55:47.661Z,47.409492
2019-05-12T00:56:49.293Z,47.409414
2019-05-12T00:57:52.341Z,47.409420
2019-05-12T00:58:55.395Z,47.409405
2019-05-12T01:00:00.319Z,47.409323
2019-05-12T01:01:02.264Z,47.409200
2019-05-12T01:02:05.305Z,47.409354
2019-05-12T01:03:08.882Z,47.409384
2019-05-12T01:04:11.316Z,47.409409
2019-05-12T01:05:14.320Z,47.409346
2019-05-12T01:06:17.801Z,47.409283
2019-05-12T01:07:21.301Z,47.409365
2019-05-12T01:08:24.313Z,47.409522
2019-05-12T01:09:28.143Z,47.409575
2019-05-12T01:10:31.301Z,47.409411
2019-05-12T01:11:34.377Z,47.409377
2019-05-12T01:12:38.288Z,47.409379
2019-05-12T01:13:41.309Z,47.409402
2019-05-12T01:14:44.325Z,47.409380
2019-05-12T01:15:48.151Z,47.409382
2019-05-12T01:16:51.291Z,47.409370
2019-05-12T01:17:54.293Z,47.409387
2019-05-12T01:18:58.587Z,47.409372
2019-05-12T01:20:01.311Z,47.409418
2019-05-12T01:21:04.289Z,47.409389
2019-05-12T01:22:08.092Z,47.409412
2019-05-12T01:23:11.329Z,47.409445
2019-05-12T01:24:13.305Z,47.409398
2019-05-12T01:25:17.625Z,47.409381
2019-05-12T01:26:20.330Z,47.409428
2019-05-12T01:27:23.290Z,47.409409
2019-05-12T01:28:27.859Z,47.409392
2019-05-12T01:29:31.288Z,47.409403
2019-05-12T01:30:33.345Z,47.409370
2019-05-12T01:31:37.802Z,47.409371
2019-05-12T01:32:41.308Z,47.409391
2019-05-12T01:33:44.341Z,47.409427
2019-05-12T01:34:48.680Z,47.409430
2019-05-12T01:35:51.321Z,47.409424
2019-05-12T01:36:54.298Z,47.409455
2019-05-12T01:38:01.073Z,47.409405
2019-05-12T01:39:04.309Z,47.409509
2019-05-12T01:40:08.910Z,47.409494
2019-05-12T01:41:12.287Z,47.409434
2019-05-12T01:42:18.063Z,47.409488
2019-05-12T01:43:21.441Z,47.409387
2019-05-12T01:44:24.304Z,47.409417
2019-05-12T01:45:28.836Z,47.409413
2019-05-12T01:46:32.324Z,47.409340
2019-05-12T01:47:35.299Z,47.409421
2019-05-12T01:48:38.298Z,47.409386
2019-05-12T01:49:41.292Z,47.409397
2019-05-12T01:50:44.325Z,47.409418
2019-05-12T01:51:47.637Z,47.409436
2019-05-12T01:52:50.320Z,47.409405
2019-05-12T01:54:07.865Z,47.409404
2019-05-12T01:55:01.319Z,47.409426
2019-05-12T01:56:04.330Z,47.409459
2019-05-12T01:57:08.134Z,47.409458
2019-05-12T01:58:11.308Z,47.409387
2019-05-12T01:59:14.325Z,47.409349
2019-05-12T02:00:18.369Z,47.409349
2019-05-12T02:01:21.306Z,47.409300
2019-05-12T02:02:24.268Z,47.409384
2019-05-12T02:03:28.392Z,47.409397
2019-05-12T02:04:31.308Z,47.409369
2019-05-12T02:05:34.338Z,47.409366
2019-05-12T02:06:38.644Z,47.409388
2019-05-12T02:07:42.297Z,47.409351
2019-05-12T02:08:47.609Z,47.409407
2019-05-12T02:09:51.332Z,47.409388
2019-05-12T02:10:54.271Z,47.409412
2019-05-12T02:11:58.229Z,47.409404
2019-05-12T02:13:01.310Z,47.409437
2019-05-12T02:14:04.328Z,47.409440
2019-05-12T02:15:08.172Z,47.409451
2019-05-12T02:16:11.286Z,47.409357
2019-05-12T02:17:14.323Z,47.409380
2019-05-12T02:18:17.787Z,47.409423
2019-05-12T02:19:21.327Z,47.409426
2019-05-12T02:20:24.278Z,47.409404
2019-05-12T02:21:27.942Z,47.409403
2019-05-12T02:22:31.310Z,47.409385
2019-05-12T02:23:34.314Z,47.409353
2019-05-12T02:24:39.025Z,47.409343
2019-05-12T02:25:42.302Z,47.409349
2019-05-12T02:26:45.296Z,47.409324
2019-05-12T02:27:48.301Z,47.409373
2019-05-12T02:28:51.338Z,47.409318
2019-05-12T02:29:54.304Z,47.409363
2019-05-12T02:30:58.998Z,47.409419
2019-05-12T02:32:02.290Z,47.409386
2019-05-12T02:33:05.219Z,47.409451
2019-05-12T02:34:07.707Z,47.409418
2019-05-12T02:35:10.312Z,47.409359
2019-05-12T02:36:15.088Z,47.409439
2019-05-12T02:37:18.280Z,47.409378
2019-05-12T02:38:21.284Z,47.409429
2019-05-12T02:39:25.009Z,47.409408
2019-05-12T02:40:27.334Z,47.409381
2019-05-12T02:41:30.284Z,47.409433
2019-05-12T02:42:34.926Z,47.409326
2019-05-12T02:43:38.312Z,47.409421
2019-05-12T02:44:43.700Z,47.409422
2019-05-12T02:45:47.286Z,47.409396
2019-05-12T02:46:50.268Z,47.409434
2019-05-12T02:47:54.306Z,47.409397
2019-05-12T02:48:57.295Z,47.409439
2019-05-12T02:50:00.315Z,47.409448
2019-05-12T02:51:05.492Z,47.409430
2019-05-12T02:52:07.317Z,47.409403
2019-05-12T02:53:10.288Z,47.409366
2019-05-12T02:54:14.388Z,47.409416
2019-05-12T02:55:17.296Z,47.409443
2019-05-12T02:56:20.305Z,47.409501
2019-05-12T02:57:25.535Z,47.409454
2019-05-12T02:58:29.276Z,47.409453
2019-05-12T02:59:34.723Z,47.409508
2019-05-12T03:00:38.347Z,47.409472
2019-05-12T03:01:41.294Z,47.409487
2019-05-12T03:02:44.397Z,47.409478
2019-05-12T03:03:47.289Z,47.409468
2019-05-12T03:04:50.376Z,47.409491
2019-05-12T03:05:54.858Z,47.409480
2019-05-12T03:07:02.078Z,47.409473
2019-05-12T03:08:06.289Z,47.409363
2019-05-12T03:09:09.305Z,47.409371
2019-05-12T03:10:14.584Z,47.409374
2019-05-12T03:11:17.334Z,47.409414
2019-05-12T03:12:20.252Z,47.409321
2019-05-12T03:13:25.030Z,47.409423
2019-05-12T03:14:28.294Z,47.409373
2019-05-12T03:15:31.299Z,47.409433
2019-05-12T03:16:35.110Z,47.409408
2019-05-12T03:17:38.279Z,47.409455
2019-05-12T03:18:44.685Z,47.409433
2019-05-12T03:19:48.299Z,47.409390
2019-05-12T03:20:54.079Z,47.409328
2019-05-12T03:21:57.288Z,47.409455
2019-05-12T03:23:00.328Z,47.409417
2019-05-12T03:24:05.697Z,47.409390
2019-05-12T03:25:19.958Z,47.409345
2019-05-12T03:26:17.307Z,47.409385
2019-05-12T03:27:20.320Z,47.409287
2019-05-12T03:28:25.610Z,47.409336
2019-05-12T03:29:29.316Z,47.409402
2019-05-12T03:30:37.135Z,47.409241
2019-05-12T03:31:41.332Z,47.409241
2019-05-12T03:32:47.229Z,47.409304
2019-05-12T03:33:54.249Z,47.409341
2019-05-12T03:34:59.356Z,47.409365
2019-05-12T03:36:08.434Z,47.409355
2019-05-12T03:37:10.329Z,47.409391
2019-05-12T03:38:14.820Z,47.409377
2019-05-12T03:39:18.266Z,47.409351
2019-05-12T03:40:24.693Z,47.409393
2019-05-12T03:41:28.300Z,47.409482
2019-05-12T03:42:31.293Z,47.409489
2019-05-12T03:43:35.136Z,47.409486
2019-05-12T03:44:38.347Z,47.409535
2019-05-12T03:45:44.978Z,47.409536
2019-05-12T03:46:47.288Z,47.409529
2019-05-12T03:47:50.299Z,47.409342
2019-05-12T03:48:55.365Z,47.409305
2019-05-12T03:49:58.340Z,47.409247
2019-05-12T03:51:01.284Z,47.409393
2019-05-12T03:52:05.228Z,47.409372
2019-05-12T03:53:10.839Z,47.409381
2019-05-12T03:54:15.244Z,47.409441
2019-05-12T03:55:31.678Z,47.409520
2019-05-12T03:56:26.471Z,47.409516
2019-05-12T03:57:29.285Z,47.409467
2019-05-12T03:58:34.559Z,47.409668
2019-05-12T03:59:38.293Z,47.409596
2019-05-12T04:00:44.184Z,47.409565
2019-05-12T04:01:46.286Z,47.409606
2019-05-12T04:02:49.295Z,47.409559
2019-05-12T04:03:54.200Z,47.409460
2019-05-12T04:04:57.301Z,47.409465
2019-05-12T04:06:00.329Z,47.409534
2019-05-12T04:07:05.133Z,47.409423
2019-05-12T04:08:08.316Z,47.409538
2019-05-12T04:09:11.292Z,47.409604
2019-05-12T04:10:15.598Z,47.409629
2019-05-12T04:11:19.308Z,47.409621
2019-05-12T04:12:25.302Z,47.409526
2019-05-12T04:13:28.248Z,47.409608
2019-05-12T04:14:34.367Z,47.409595
2019-05-12T04:15:37.313Z,47.409615
2019-05-12T04:16:40.335Z,47.409603
2019-05-12T04:17:45.231Z,47.409578
2019-05-12T04:18:48.289Z,47.409618
2019-05-12T04:19:51.347Z,47.409471
2019-05-12T04:20:54.587Z,47.409481
2019-05-12T04:21:57.349Z,47.409524
2019-05-12T04:23:00.279Z,47.409540
2019-05-12T04:24:05.556Z,47.409602
2019-05-12T04:25:08.328Z,47.409430
2019-05-12T04:26:15.736Z,47.409581
2019-05-12T04:27:19.266Z,47.409414
2019-05-12T04:28:24.559Z,47.409498
2019-05-12T04:29:27.286Z,47.409406
2019-05-12T04:30:30.356Z,47.409456
2019-05-12T04:31:34.759Z,47.409289
2019-05-12T04:32:38.297Z,47.409093
2019-05-12T04:33:41.307Z,47.409144
2019-05-12T04:34:44.732Z,47.409217
2019-05-12T04:35:48.331Z,47.409328
2019-05-12T04:36:51.320Z,47.409073
2019-05-12T04:37:55.290Z,47.409197
2019-05-12T04:38:58.289Z,47.409212
2019-05-12T04:40:01.316Z,47.409420
2019-05-12T04:41:05.863Z,47.409515
2019-05-12T04:42:09.265Z,47.409536
2019-05-12T04:43:14.560Z,47.409468
2019-05-12T04:44:17.282Z,47.409388
2019-05-12T04:45:20.323Z,47.409222
2019-05-12T04:46:25.284Z,47.409380
2019-05-12T04:47:27.310Z,47.409401
2019-05-12T04:48:30.291Z,47.409414
2019-05-12T04:49:34.626Z,47.409468
2019-05-12T04:50:37.325Z,47.409424
2019-05-12T04:51:40.279Z,47.409360
2019-05-12T04:52:44.648Z,47.409359
2019-05-12T04:53:48.272Z,47.409362
2019-05-12T04:54:51.292Z,47.409379
2019-05-12T04:56:09.662Z,47.409360
2019-05-12T04:57:04.178Z,47.409366
2019-05-12T04:58:07.286Z,47.409363
2019-05-12T04:59:10.301Z,47.409401
2019-05-12T05:00:15.860Z,47.409382
2019-05-12T05:01:19.287Z,47.409381
2019-05-12T05:02:25.060Z,47.409371
2019-05-12T05:03:28.300Z,47.409391
2019-05-12T05:04:31.320Z,47.409332
2019-05-12T05:05:35.324Z,47.409318
2019-05-12T05:06:39.295Z,47.409443
2019-05-12T05:07:44.834Z,47.409361
2019-05-12T05:08:48.295Z,47.409365
2019-05-12T05:09:51.326Z,47.409363
2019-05-12T05:10:54.885Z,47.409391
2019-05-12T05:11:58.299Z,47.409317
2019-05-12T05:13:01.290Z,47.409423
2019-05-12T05:14:04.460Z,47.409377
2019-05-12T05:15:07.326Z,47.409267
2019-05-12T05:16:10.316Z,47.409280
2019-05-12T05:17:15.072Z,47.409335
2019-05-12T05:18:18.288Z,47.409352
2019-05-12T05:19:21.264Z,47.409393
2019-05-12T05:20:24.349Z,47.409391
2019-05-12T05:21:27.283Z,47.409355
2019-05-12T05:22:30.254Z,47.409457
2019-05-12T05:23:33.588Z,47.409432
2019-05-12T05:24:35.304Z,47.409456
2019-05-12T05:25:38.358Z,47.409419
2019-05-12T05:26:43.448Z,47.409594
2019-05-12T05:27:46.312Z,47.409472
2019-05-12T05:28:49.268Z,47.409397
2019-05-12T05:29:54.184Z,47.409534
2019-05-12T05:30:57.287Z,47.409563
2019-05-12T05:32:00.289Z,47.409504
2019-05-12T05:33:04.490Z,47.409481
2019-05-12T05:34:08.278Z,47.409531
2019-05-12T05:35:13.301Z,47.409515
2019-05-12T05:36:19.746Z,47.409486
2019-05-12T05:37:23.921Z,47.409487
2019-05-12T05:38:27.290Z,47.409475
2019-05-12T05:39:30.300Z,47.409501
2019-05-12T05:40:35.359Z,47.409394
2019-05-12T05:41:40.337Z,47.409385
2019-05-12T05:42:47.285Z,47.409404
2019-05-12T05:43:54.278Z,47.409375
2019-05-12T05:44:57.269Z,47.409444
2019-05-12T05:46:07.048Z,47.409380
2019-05-12T05:47:10.337Z,47.409377
2019-05-12T05:48:13.705Z,47.409397
2019-05-12T05:49:16.301Z,47.409394
2019-05-12T05:50:25.106Z,47.409397
2019-05-12T05:51:27.332Z,47.409349
2019-05-12T05:52:33.062Z,47.409333
2019-05-12T05:53:38.306Z,47.409388
2019-05-12T05:54:41.271Z,47.409399
2019-05-12T05:55:44.342Z,47.409387
2019-05-12T05:56:57.498Z,47.409379
2019-05-12T05:57:59.708Z,47.409451
2019-05-12T05:59:05.337Z,47.409364
2019-05-12T06:00:17.320Z,47.409398
2019-05-12T06:01:16.355Z,47.409330
2019-05-12T06:02:24.440Z,47.409368
2019-05-12T06:03:28.054Z,47.409474
2019-05-12T06:04:31.298Z,47.409456
2019-05-12T06:05:38.544Z,47.409440
2019-05-12T06:06:50.405Z,47.409374
2019-05-12T06:07:50.304Z,47.409252
2019-05-12T06:08:54.496Z,47.409187
2019-05-12T06:09:57.317Z,47.409360
2019-05-12T06:11:00.300Z,47.409430
2019-05-12T06:12:05.280Z,47.409469
2019-05-12T06:13:11.253Z,47.409557
2019-05-12T06:14:16.276Z,47.409545
2019-05-12T06:15:19.285Z,47.409511
2019-05-12T06:16:25.088Z,47.409490
2019-05-12T06:17:28.290Z,47.409631
2019-05-12T06:18:33.305Z,47.409464
2019-05-12T06:19:36.306Z,47.409544
2019-05-12T06:20:39.268Z,47.409419
2019-05-12T06:21:44.055Z,47.409330
2019-05-12T06:22:48.603Z,47.409450
2019-05-12T06:23:55.315Z,47.409409
2019-05-12T06:24:59.004Z,47.409320
2019-05-12T06:26:04.352Z,47.409425
2019-05-12T06:27:15.112Z,47.409436
2019-05-12T06:28:16.264Z,47.409491
2019-05-12T06:29:20.789Z,47.409464
2019-05-12T06:30:25.288Z,47.409444
2019-05-12T06:31:29.806Z,47.409411
2019-05-12T06:32:33.675Z,47.409449
2019-05-12T06:33:36.507Z,47.409509
2019-05-12T06:34:39.299Z,47.409571
2019-05-12T06:35:45.124Z,47.409329
2019-05-12T06:36:48.335Z,47.409433
2019-05-12T06:38:00.185Z,47.409577
2019-05-12T06:38:59.297Z,47.409608
2019-05-12T06:40:03.589Z,47.409434
2019-05-12T06:41:06.333Z,47.409388
2019-05-12T06:42:14.134Z,47.409186
2019-05-12T06:43:17.335Z,47.409361
2019-05-12T06:44:20.272Z,47.409513
2019-05-12T06:45:23.530Z,47.409446
2019-05-12T06:46:26.300Z,47.409429
2019-05-12T06:47:28.327Z,47.409478
2019-05-12T06:48:33.210Z,47.409477
2019-05-12T06:49:36.309Z,47.409429
2019-05-12T06:50:39.567Z,47.409371
2019-05-12T06:51:44.295Z,47.409473
2019-05-12T06:52:49.123Z,47.409461
2019-05-12T06:53:53.463Z,47.409361
2019-05-12T06:54:56.810Z,47.409435
2019-05-12T06:56:00.318Z,47.409409
2019-05-12T06:57:18.548Z,47.409367
2019-05-12T06:58:13.811Z,47.409435
2019-05-12T06:59:17.338Z,47.409503
2019-05-12T07:00:22.378Z,47.409477
2019-05-12T07:01:28.315Z,47.409455
2019-05-12T07:02:37.188Z,47.409442
2019-05-12T07:03:39.281Z,47.409373
2019-05-12T07:04:47.498Z,47.409386
2019-05-12T07:05:50.270Z,47.409399
2019-05-12T07:06:56.086Z,47.409529
2019-05-12T07:08:04.000Z,47.409391
2019-05-12T07:09:09.864Z,47.409312
2019-05-12T07:10:35.172Z,47.409408
2019-05-12T07:11:24.292Z,47.409340
2019-05-12T07:12:32.781Z,47.409477
2019-05-12T07:13:34.362Z,47.409399
2019-05-12T07:14:37.328Z,47.409382
2019-05-12T07:15:40.730Z,47.409409
2019-05-12T07:16:44.296Z,47.409320
2019-05-12T07:17:49.738Z,47.409337
2019-05-12T07:18:54.176Z,47.409395
2019-05-12T07:19:58.363Z,47.409361
2019-05-12T07:21:01.334Z,47.409372
2019-05-12T07:22:18.844Z,47.409371
2019-05-12T07:23:14.261Z,47.409349
2019-05-12T07:24:17.330Z,47.409376
2019-05-12T07:25:22.933Z,47.409399
2019-05-12T07:26:28.308Z,47.409386
2019-05-12T07:27:36.814Z,47.409406
2019-05-12T07:28:40.471Z,47.409435
2019-05-12T07:29:43.667Z,47.409385
2019-05-12T07:30:46.294Z,47.409324
2019-05-12T07:31:49.294Z,47.409316
2019-05-12T07:32:59.379Z,47.409313
2019-05-12T07:34:00.285Z,47.409365
2019-05-12T07:35:03.913Z,47.409392
2019-05-12T07:36:07.270Z,47.409331
2019-05-12T07:37:10.283Z,47.409358
2019-05-12T07:38:20.970Z,47.409349
2019-05-12T07:39:21.299Z,47.409292
2019-05-12T07:40:29.719Z,47.409329
2019-05-12T07:41:34.201Z,47.409290
2019-05-12T07:42:39.536Z,47.409378
2019-05-12T07:43:44.357Z,47.409327
2019-05-12T07:44:47.322Z,47.409385
2019-05-12T07:45:53.979Z,47.409429
2019-05-12T07:46:58.316Z,47.409350
2019-05-12T07:48:08.144Z,47.409367
2019-05-12T07:49:09.304Z,47.409287
2019-05-12T07:50:16.192Z,47.409320
2019-05-12T07:51:20.306Z,47.409326
2019-05-12T07:52:24.235Z,47.409345
2019-05-12T07:53:27.319Z,47.409376
2019-05-12T07:54:35.344Z,47.409315
2019-05-12T07:55:39.856Z,47.409340
2019-05-12T07:56:46.300Z,47.409364
2019-05-12T07:57:55.368Z,47.409351
2019-05-12T07:58:57.344Z,47.409399
2019-05-12T08:00:00.294Z,47.409341
2019-05-12T08:01:07.662Z,47.409306
2019-05-12T08:02:10.280Z,47.409385
2019-05-12T08:03:19.005Z,47.409392
2019-05-12T08:04:21.303Z,47.409379
2019-05-12T08:05:24.326Z,47.409365
2019-05-12T08:06:31.870Z,47.409352
2019-05-12T08:07:35.307Z,47.409367
2019-05-12T08:08:41.884Z,47.409374
2019-05-12T08:09:46.326Z,47.409394
2019-05-12T08:10:51.503Z,47.409383
2019-05-12T08:11:56.342Z,47.409396
2019-05-12T08:13:00.883Z,47.409392
2019-05-12T08:14:04.288Z,47.409341
2019-05-12T08:15:09.596Z,47.409341
2019-05-12T08:16:14.171Z,47.409389
2019-05-12T08:17:19.658Z,47.409437
2019-05-12T08:18:24.616Z,47.409373
2019-05-12T08:19:28.575Z,47.409399
2019-05-12T08:20:31.305Z,47.409381
2019-05-12T08:21:34.757Z,47.409371
2019-05-12T08:22:43.609Z,47.409315
2019-05-12T08:23:47.308Z,47.409364
2019-05-12T08:24:50.312Z,47.409315
2019-05-12T08:25:54.025Z,47.409286
2019-05-12T08:27:03.332Z,47.409425
2019-05-12T08:28:14.968Z,47.409344
2019-05-12T08:29:16.889Z,47.409308
2019-05-12T08:30:21.271Z,47.409351
2019-05-12T08:31:31.894Z,47.409392
2019-05-12T08:32:33.869Z,47.409343
2019-05-12T08:33:37.291Z,47.409245
2019-05-12T08:34:40.311Z,47.409321
2019-05-12T08:35:43.902Z,47.409436
2019-05-12T08:36:53.276Z,47.409440
2019-05-12T08:37:55.307Z,47.409406
2019-05-12T08:38:58.316Z,47.409334
2019-05-12T08:40:04.366Z,47.409355
2019-05-12T08:41:09.285Z,47.409474
2019-05-12T08:42:14.377Z,47.409373
2019-05-12T08:43:17.291Z,47.409357
2019-05-12T08:44:24.842Z,47.409394
2019-05-12T08:45:34.002Z,47.409430
2019-05-12T08:46:36.292Z,47.409422
2019-05-12T08:47:39.365Z,47.409397
2019-05-12T08:48:44.390Z,47.409327
2019-05-12T08:49:55.156Z,47.409397
2019-05-12T08:50:56.315Z,47.409465
2019-05-12T08:52:00.360Z,47.409357
2019-05-12T08:53:04.704Z,47.409383
2019-05-12T08:54:08.501Z,47.409323
2019-05-12T08:55:13.856Z,47.409440
2019-05-12T08:56:22.886Z,47.409431
2019-05-12T08:57:34.827Z,47.409447
2019-05-12T08:58:47.301Z,47.409458
2019-05-12T08:59:44.119Z,47.409422
2019-05-12T09:00:50.307Z,47.409385
2019-05-12T09:01:54.297Z,47.409366
2019-05-12T09:02:57.327Z,47.409408
2019-05-12T09:04:05.423Z,47.409414
2019-05-12T09:05:08.299Z,47.409389
2019-05-12T09:06:17.919Z,47.409460
2019-05-12T09:07:19.304Z,47.409431
2019-05-12T09:08:24.218Z,47.409483
2019-05-12T09:09:27.271Z,47.409455
2019-05-12T09:10:30.326Z,47.409408
2019-05-12T09:11:33.688Z,47.409464
2019-05-12T09:12:37.303Z,47.409502
2019-05-12T09:13:40.340Z,47.409422
2019-05-12T09:14:46.161Z,47.409414
2019-05-12T09:15:49.343Z,47.409371
2019-05-12T09:16:53.670Z,47.409356
2019-05-12T09:18:00.370Z,47.409294
2019-05-12T09:19:04.883Z,47.409411
2019-05-12T09:20:08.656Z,47.409360
2019-05-12T09:21:14.054Z,47.409425
2019-05-12T09:22:20.836Z,47.409350
2019-05-12T09:23:24.350Z,47.409343
2019-05-12T09:24:27.551Z,47.409411
2019-05-12T09:25:30.357Z,47.409368
2019-05-12T09:26:34.438Z,47.409399
2019-05-12T09:27:39.452Z,47.409359
2019-05-12T09:28:50.086Z,47.409372
2019-05-12T09:29:54.014Z,47.409414
2019-05-12T09:30:57.403Z,47.409392
2019-05-12T09:32:05.467Z,47.409409
2019-05-12T09:33:08.331Z,47.409431
2019-05-12T09:34:13.482Z,47.409300
2019-05-12T09:35:19.307Z,47.409244
2019-05-12T09:36:24.278Z,47.409261
2019-05-12T09:37:30.909Z,47.409365
2019-05-12T09:38:35.331Z,47.409403
2019-05-12T09:39:42.454Z,47.409315
2019-05-12T09:40:46.329Z,47.409366
2019-05-12T09:41:52.583Z,47.409311
2019-05-12T09:43:00.250Z,47.409252
2019-05-12T09:44:05.311Z,47.409299
2019-05-12T09:45:10.504Z,47.409357
2019-05-12T09:46:14.518Z,47.409427
2019-05-12T09:47:22.948Z,47.409363
2019-05-12T09:48:25.338Z,47.409367
2019-05-12T09:49:38.451Z,47.409326
2019-05-12T09:50:36.310Z,47.409354
2019-05-12T09:51:45.649Z,47.409347
2019-05-12T09:52:50.186Z,47.409347
2019-05-12T09:53:55.562Z,47.409232
2019-05-12T09:54:59.307Z,47.409293
2019-05-12T09:56:04.349Z,47.409297
2019-05-12T09:57:07.363Z,47.409315
2019-05-12T09:58:13.976Z,47.409324
2019-05-12T09:59:22.568Z,47.409310
2019-05-12T10:00:25.334Z,47.409285
2019-05-12T10:01:29.267Z,47.409391
2019-05-12T10:02:36.336Z,47.409406
2019-05-12T10:03:40.154Z,47.409410
2019-05-12T10:04:43.765Z,47.409384
2019-05-12T10:05:46.311Z,47.409398
2019-05-12T10:06:49.355Z,47.409404
2019-05-12T10:07:53.623Z,47.409385
2019-05-12T10:08:56.308Z,47.409440
2019-05-12T10:09:59.173Z,47.409399
2019-05-12T10:11:03.723Z,47.409304
2019-05-12T10:12:07.321Z,47.409331
2019-05-12T10:13:10.305Z,47.409322
2019-05-12T10:14:13.975Z,47.409312
2019-05-12T10:15:18.710Z,47.409250
2019-05-12T10:16:25.304Z,47.409296
2019-05-12T10:17:30.135Z,47.409323
2019-05-12T10:18:33.646Z,47.409335
2019-05-12T10:19:37.314Z,47.409311
2019-05-12T10:20:40.283Z,47.409313
2019-05-12T10:21:44.013Z,47.409289
2019-05-12T10:22:47.328Z,47.409321
2019-05-12T10:23:51.517Z,47.409311
2019-05-12T10:24:58.701Z,47.409366
2019-05-12T10:26:09.471Z,47.409337
2019-05-12T10:27:10.317Z,47.409321
2019-05-12T10:28:15.898Z,47.409312
2019-05-12T10:29:20.804Z,47.409394
2019-05-12T10:30:24.289Z,47.409358
2019-05-12T10:31:29.529Z,47.409370
2019-05-12T10:32:35.315Z,47.409368
2019-05-12T10:33:38.318Z,47.409393
2019-05-12T10:34:41.290Z,47.409512
2019-05-12T10:35:44.315Z,47.409514
2019-05-12T10:36:49.220Z,47.409494
2019-05-12T10:37:53.745Z,47.409412
2019-05-12T10:38:57.326Z,47.409297
2019-05-12T10:40:00.340Z,47.409372
2019-05-12T10:41:04.319Z,47.409310
2019-05-12T10:42:07.292Z,47.409253
2019-05-12T10:43:10.363Z,47.409262
2019-05-12T10:44:13.931Z,47.409237
2019-05-12T10:45:20.605Z,47.409306
2019-05-12T10:46:28.627Z,47.409399
2019-05-12T10:47:34.262Z,47.409578
2019-05-12T10:48:38.357Z,47.409418
2019-05-12T10:49:41.310Z,47.409267
2019-05-12T10:50:44.248Z,47.409361
2019-05-12T10:51:47.778Z,47.409469
2019-05-12T10:52:53.519Z,47.409378
2019-05-12T10:54:01.965Z,47.409477
2019-05-12T10:55:04.515Z,47.409592
2019-05-12T10:56:06.288Z,47.409413
2019-05-12T10:57:09.363Z,47.409398
2019-05-12T10:58:14.346Z,47.409417
2019-05-12T10:59:29.167Z,47.409486
2019-05-12T11:00:26.854Z,47.409499
2019-05-12T11:01:30.292Z,47.409462
2019-05-12T11:02:33.680Z,47.409435
2019-05-12T11:03:37.311Z,47.409387
2019-05-12T11:04:41.281Z,47.409491
2019-05-12T11:05:46.354Z,47.409486
2019-05-12T11:06:49.328Z,47.409391
2019-05-12T11:07:53.978Z,47.409360
2019-05-12T11:08:57.334Z,47.409417
2019-05-12T11:10:03.536Z,47.409453
2019-05-12T11:11:08.325Z,47.409476
2019-05-12T11:12:13.663Z,47.409457
2019-05-12T11:13:18.109Z,47.409411
2019-05-12T11:14:26.320Z,47.409404
2019-05-12T11:15:29.297Z,47.409389
2019-05-12T11:16:34.453Z,47.409373
2019-05-12T11:17:40.174Z,47.409389
2019-05-12T11:18:43.731Z,47.409368
2019-05-12T11:19:51.335Z,47.409388
2019-05-12T11:20:55.306Z,47.409419
2019-05-12T11:21:58.280Z,47.409450
2019-05-12T11:23:03.298Z,47.409465
2019-05-12T11:24:07.297Z,47.409480
2019-05-12T11:25:10.389Z,47.409448
2019-05-12T11:26:14.184Z,47.409442
2019-05-12T11:27:17.332Z,47.409362
2019-05-12T11:28:20.326Z,47.409405
2019-05-12T11:29:23.641Z,47.409476
2019-05-12T11:30:27.339Z,47.409423
2019-05-12T11:31:30.281Z,47.409489
2019-05-12T11:32:34.928Z,47.409433
2019-05-12T11:33:43.471Z,47.409468
2019-05-12T11:34:47.308Z,47.409425
2019-05-12T11:35:50.343Z,47.409493
2019-05-12T11:36:54.532Z,47.409448
2019-05-12T11:37:56.279Z,47.409462
2019-05-12T11:38:59.298Z,47.409431
2019-05-12T11:40:04.272Z,47.409392
2019-05-12T11:41:09.908Z,47.409489
2019-05-12T11:42:15.286Z,47.409446
2019-05-12T11:43:18.318Z,47.409585
2019-05-12T11:44:23.177Z,47.409465
2019-05-12T11:45:26.371Z,47.409431
2019-05-12T11:46:29.265Z,47.409492
2019-05-12T11:47:35.572Z,47.409453
2019-05-12T11:48:45.184Z,47.409403
2019-05-12T11:49:48.281Z,47.409458
2019-05-12T11:50:51.472Z,47.409458
2019-05-12T11:51:54.495Z,47.409444
2019-05-12T11:52:57.300Z,47.409499
2019-05-12T11:54:03.414Z,47.409488
2019-05-12T11:55:08.295Z,47.409538
2019-05-12T11:56:10.332Z,47.409505
2019-05-12T11:57:13.310Z,47.409500
2019-05-12T11:58:16.338Z,47.409450
2019-05-12T11:59:19.305Z,47.409468
2019-05-12T12:00:24.197Z,47.409500
2019-05-12T12:01:27.335Z,47.409552
2019-05-12T12:02:30.630Z,47.409526
2019-05-12T12:03:34.290Z,47.409564
2019-05-12T12:04:37.315Z,47.409526
2019-05-12T12:05:40.285Z,47.409549
2019-05-12T12:06:43.811Z,47.409606
2019-05-12T12:07:51.379Z,47.409538
2019-05-12T12:08:54.298Z,47.409579
2019-05-12T12:09:59.444Z,47.409602
2019-05-12T12:11:03.975Z,47.409549
2019-05-12T12:12:07.539Z,47.409516
2019-05-12T12:13:10.281Z,47.409468